Time;durP1;ratioP1;P1;durP2;ratioP2;P2;SDS_P1;SDS_P2;PMS_P1;PMS_P2;Temp;Humidity;BMP_temperature;BMP_pressure;BME280_temperature;BME280_humidity;BME280_pressure;Samples;Min_cycle;Max_cycle;Signal;HPM_P1;HPM_P2
2023/05/12 00:00:03;;;;;;;;;;;12.80;90.30;;;;;;5072540;28;19916;-26
2023/05/12 00:02:30;;;;;;;;;;;12.80;90.40;;;;;;5072459;28;19912;-26
2023/05/12 00:04:55;;;;;;;;;;;12.80;90.40;;;;;;5072497;28;20318;-26
2023/05/12 00:07:21;;;;;;;;;;;12.70;90.30;;;;;;5072746;28;19908;-25
2023/05/12 00:09:46;;;;;;;;;;;12.70;90.40;;;;;;5072327;28;19909;-25
2023/05/12 00:12:12;;;;;;;;;;;12.70;90.40;;;;;;5072378;28;20306;-25
2023/05/12 00:14:37;;;;;;;;;;;12.70;90.50;;;;;;5072340;28;20234;-27
2023/05/12 00:17:03;;;;;;;;;;;12.80;90.40;;;;;;5072351;28;19923;-26
2023/05/12 00:19:29;;;;;;;;;;;12.80;90.40;;;;;;5072167;28;19973;-26
2023/05/12 00:21:55;;;;;;;;;;;12.80;90.50;;;;;;5072595;28;19916;-29
2023/05/12 00:24:20;;;;;;;;;;;12.70;90.70;;;;;;5070831;28;19969;-27
2023/05/12 00:26:46;;;;;;;;;;;12.80;90.60;;;;;;5070903;28;20376;-26
2023/05/12 00:29:11;;;;;;;;;;;12.70;90.50;;;;;;5071987;28;19927;-26
2023/05/12 00:31:37;;;;;;;;;;;12.70;90.70;;;;;;5072106;28;20377;-27
2023/05/12 00:34:02;;;;;;;;;;;12.70;90.60;;;;;;5072056;28;19908;-25
2023/05/12 00:36:28;;;;;;;;;;;12.70;90.70;;;;;;5072084;28;19913;-26
2023/05/12 00:38:55;;;;;;;;;;;12.70;90.80;;;;;;5072066;28;19919;-27
2023/05/12 00:41:20;;;;;;;;;;;12.70;90.80;;;;;;5071953;28;19908;-26
2023/05/12 00:43:46;;;;;;;;;;;12.70;91.00;;;;;;5072011;28;19927;-26
2023/05/12 00:46:11;;;;;;;;;;;12.60;90.80;;;;;;5071926;28;19915;-25
2023/05/12 00:48:37;;;;;;;;;;;12.60;90.80;;;;;;5071965;28;19909;-25
2023/05/12 00:51:03;;;;;;;;;;;12.60;90.80;;;;;;5071499;28;20372;-26
2023/05/12 00:53:29;;;;;;;;;;;12.60;90.80;;;;;;5072084;28;19961;-27
2023/05/12 00:55:56;;;;;;;;;;;12.60;90.80;;;;;;5071898;28;20113;-26
2023/05/12 00:58:22;;;;;;;;;;;12.60;90.90;;;;;;5071772;28;19913;-26
2023/05/12 01:00:47;;;;;;;;;;;12.60;90.90;;;;;;5071796;28;20390;-25
2023/05/12 01:03:13;;;;;;;;;;;12.60;91.00;;;;;;5071740;28;19915;-31
2023/05/12 01:05:45;;;;;;;;;;;12.60;90.80;;;;;;5071879;28;19916;-33
2023/05/12 01:08:11;;;;;;;;;;;12.60;90.90;;;;;;5071672;28;19909;-32
2023/05/12 01:10:36;;;;;;;;;;;12.60;91.10;;;;;;5071792;28;19915;-26
2023/05/12 01:13:01;;;;;;;;;;;12.50;90.90;;;;;;5071761;28;19982;-26
2023/05/12 01:15:30;;;;;;;;;;;12.50;91.00;;;;;;5071799;28;20291;-26
2023/05/12 01:17:56;;;;;;;;;;;12.50;91.00;;;;;;5071645;28;19913;-28
2023/05/12 01:20:23;;;;;;;;;;;12.50;91.20;;;;;;5071692;28;19969;-26
2023/05/12 01:22:48;;;;;;;;;;;12.50;91.20;;;;;;5071745;28;19919;-25
2023/05/12 01:25:14;;;;;;;;;;;12.50;91.20;;;;;;5071665;28;20360;-26
2023/05/12 01:27:40;;;;;;;;;;;12.40;91.20;;;;;;5071579;28;19962;-27
2023/05/12 01:30:06;;;;;;;;;;;12.40;91.40;;;;;;5070187;28;20375;-29
2023/05/12 01:32:32;;;;;;;;;;;12.40;91.30;;;;;;5071731;28;19931;-26
2023/05/12 01:34:57;;;;;;;;;;;12.40;91.50;;;;;;5071686;28;19908;-28
2023/05/12 01:37:25;;;;;;;;;;;12.40;91.30;;;;;;5071540;28;20012;-26
2023/05/12 01:39:54;;;;;;;;;;;12.40;91.70;;;;;;5071475;28;19909;-28
2023/05/12 01:42:19;;;;;;;;;;;12.40;91.50;;;;;;5071427;28;19915;-26
2023/05/12 01:44:45;;;;;;;;;;;12.40;92.00;;;;;;5071463;28;20348;-25
2023/05/12 01:47:11;;;;;;;;;;;12.40;91.60;;;;;;5071906;28;19908;-35
2023/05/12 01:49:36;;;;;;;;;;;12.30;91.60;;;;;;5071403;28;19912;-33
2023/05/12 01:52:02;;;;;;;;;;;12.30;91.70;;;;;;5071281;28;20433;-26
2023/05/12 01:54:28;;;;;;;;;;;12.30;91.60;;;;;;5071446;28;19995;-26
2023/05/12 01:56:53;;;;;;;;;;;12.30;91.60;;;;;;5071365;28;19915;-26
2023/05/12 01:59:19;;;;;;;;;;;12.30;91.70;;;;;;5071115;28;19913;-27
2023/05/12 02:01:44;;;;;;;;;;;12.30;91.80;;;;;;5069632;28;20260;-27
2023/05/12 02:04:10;;;;;;;;;;;12.30;91.90;;;;;;5074196;28;19909;-33
2023/05/12 02:06:35;;;;;;;;;;;12.30;91.70;;;;;;5074723;28;19916;-27
2023/05/12 02:09:00;;;;;;;;;;;12.30;91.90;;;;;;5073325;28;19913;-26
2023/05/12 02:11:26;;;;;;;;;;;12.40;91.80;;;;;;5074475;28;20276;-29
2023/05/12 02:13:51;;;;;;;;;;;12.30;91.90;;;;;;5074610;28;19966;-30
2023/05/12 02:16:17;;;;;;;;;;;12.40;91.90;;;;;;5074708;28;19909;-26
2023/05/12 02:18:42;;;;;;;;;;;12.30;91.90;;;;;;5074469;28;20330;-26
2023/05/12 02:21:08;;;;;;;;;;;12.40;91.90;;;;;;5074695;28;19908;-26
2023/05/12 02:23:33;;;;;;;;;;;12.40;92.00;;;;;;5074325;28;19930;-27
2023/05/12 02:25:59;;;;;;;;;;;12.40;92.00;;;;;;5074466;28;20030;-37
2023/05/12 02:28:24;;;;;;;;;;;12.40;92.20;;;;;;5074461;28;20226;-27
2023/05/12 02:30:51;;;;;;;;;;;12.30;92.20;;;;;;5074335;28;20000;-28
2023/05/12 02:33:18;;;;;;;;;;;12.30;92.10;;;;;;5074199;28;19909;-27
2023/05/12 02:35:44;;;;;;;;;;;12.30;92.20;;;;;;5074194;28;19908;-27
2023/05/12 02:38:09;;;;;;;;;;;12.30;92.10;;;;;;5074147;28;19935;-27
2023/05/12 02:40:35;;;;;;;;;;;12.30;92.30;;;;;;5074136;28;19908;-26
2023/05/12 02:43:00;;;;;;;;;;;12.30;92.20;;;;;;5074008;28;19909;-28
2023/05/12 02:45:26;;;;;;;;;;;12.30;92.40;;;;;;5074027;28;19973;-26
2023/05/12 02:47:51;;;;;;;;;;;12.30;92.40;;;;;;5072631;28;19961;-28
2023/05/12 02:50:17;;;;;;;;;;;12.30;92.40;;;;;;5074019;28;20296;-27
2023/05/12 02:52:42;;;;;;;;;;;12.30;92.70;;;;;;5073897;28;19909;-27
2023/05/12 02:55:08;;;;;;;;;;;12.30;92.50;;;;;;5073892;28;20011;-28
2023/05/12 02:57:33;;;;;;;;;;;12.30;92.40;;;;;;5073665;28;19912;-25
2023/05/12 03:00:00;;;;;;;;;;;12.30;92.40;;;;;;5070541;28;19966;-27
2023/05/12 03:02:26;;;;;;;;;;;12.40;92.50;;;;;;5071292;28;19959;-29
2023/05/12 03:04:51;;;;;;;;;;;12.40;92.60;;;;;;5070467;28;19908;-30
2023/05/12 03:07:17;;;;;;;;;;;12.30;92.80;;;;;;5070648;28;20160;-33
2023/05/12 03:09:42;;;;;;;;;;;12.40;92.60;;;;;;5071093;28;19909;-27
2023/05/12 03:12:08;;;;;;;;;;;12.40;92.90;;;;;;5070922;28;19909;-28
2023/05/12 03:14:33;;;;;;;;;;;12.30;92.60;;;;;;5070496;28;20017;-28
2023/05/12 03:16:59;;;;;;;;;;;12.30;92.80;;;;;;5070788;28;19958;-29
2023/05/12 03:19:26;;;;;;;;;;;12.40;92.70;;;;;;5070991;28;19920;-26
2023/05/12 03:21:52;;;;;;;;;;;12.40;92.80;;;;;;5070764;28;19919;-28
2023/05/12 03:24:18;;;;;;;;;;;12.40;92.80;;;;;;5069998;28;20015;-27
2023/05/12 03:26:43;;;;;;;;;;;12.30;92.90;;;;;;5071280;28;19908;-26
2023/05/12 03:29:08;;;;;;;;;;;12.40;93.00;;;;;;5071411;28;19920;-27
2023/05/12 03:31:34;;;;;;;;;;;12.40;93.10;;;;;;5071303;28;19973;-26
2023/05/12 03:33:59;;;;;;;;;;;12.40;93.20;;;;;;5071294;28;20276;-28
2023/05/12 03:36:25;;;;;;;;;;;12.40;92.90;;;;;;5071184;28;20143;-26
2023/05/12 03:38:50;;;;;;;;;;;12.40;93.00;;;;;;5071022;28;20377;-26
2023/05/12 03:41:16;;;;;;;;;;;12.40;93.20;;;;;;5071131;28;19908;-27
2023/05/12 03:43:41;;;;;;;;;;;12.40;93.20;;;;;;5069664;28;20007;-29
2023/05/12 03:46:07;;;;;;;;;;;12.50;93.00;;;;;;5071401;28;19909;-29
2023/05/12 03:48:32;;;;;;;;;;;12.40;93.20;;;;;;5070988;28;20001;-30
2023/05/12 03:50:58;;;;;;;;;;;12.50;93.30;;;;;;5071013;28;19908;-29
2023/05/12 03:53:23;;;;;;;;;;;12.50;93.10;;;;;;5070789;28;19916;-27
2023/05/12 03:55:49;;;;;;;;;;;12.50;93.20;;;;;;5071260;28;19909;-26
2023/05/12 03:58:15;;;;;;;;;;;12.50;93.20;;;;;;5070637;28;19962;-25
2023/05/12 04:00:40;;;;;;;;;;;12.50;93.10;;;;;;5070845;28;20359;-27
2023/05/12 04:03:06;;;;;;;;;;;12.60;93.10;;;;;;5070578;28;20405;-27
2023/05/12 04:05:31;;;;;;;;;;;12.60;93.10;;;;;;5070645;28;19909;-27
2023/05/12 04:07:57;;;;;;;;;;;12.60;93.00;;;;;;5070579;28;20031;-29
2023/05/12 04:10:22;;;;;;;;;;;12.70;93.10;;;;;;5070765;28;19915;-29
2023/05/12 04:12:48;;;;;;;;;;;12.70;93.30;;;;;;5070732;28;19909;-27
2023/05/12 04:15:13;;;;;;;;;;;12.70;93.20;;;;;;5070738;28;19961;-28
2023/05/12 04:17:39;;;;;;;;;;;12.70;93.00;;;;;;5071704;28;20376;-27
2023/05/12 04:20:05;;;;;;;;;;;12.80;92.90;;;;;;5072232;28;19913;-28
2023/05/12 04:22:31;;;;;;;;;;;12.80;92.90;;;;;;5072245;28;20283;-27
2023/05/12 04:24:56;;;;;;;;;;;12.90;92.90;;;;;;5072337;28;19915;-33
2023/05/12 04:27:22;;;;;;;;;;;12.90;93.00;;;;;;5071964;28;19917;-30
2023/05/12 04:29:47;;;;;;;;;;;12.90;92.90;;;;;;5072417;28;19921;-29
2023/05/12 04:32:12;;;;;;;;;;;12.90;92.80;;;;;;5071884;28;19909;-27
2023/05/12 04:34:38;;;;;;;;;;;13.00;92.80;;;;;;5072109;28;19909;-28
2023/05/12 04:37:03;;;;;;;;;;;13.00;92.80;;;;;;5071924;28;20426;-26
2023/05/12 04:39:29;;;;;;;;;;;13.10;92.70;;;;;;5071833;28;19913;-27
2023/05/12 04:41:54;;;;;;;;;;;13.10;92.70;;;;;;5071955;28;19912;-28
2023/05/12 04:44:21;;;;;;;;;;;13.10;92.60;;;;;;5071830;28;20415;-28
2023/05/12 04:46:46;;;;;;;;;;;13.20;92.60;;;;;;5071723;28;19909;-29
2023/05/12 04:49:12;;;;;;;;;;;13.20;92.60;;;;;;5071527;28;20280;-28
2023/05/12 04:51:41;;;;;;;;;;;13.20;92.50;;;;;;5071846;28;20310;-28
2023/05/12 04:54:09;;;;;;;;;;;13.20;92.50;;;;;;5071726;28;20349;-27
2023/05/12 04:56:34;;;;;;;;;;;13.30;92.60;;;;;;5071803;28;19919;-30
2023/05/12 04:59:00;;;;;;;;;;;13.30;92.60;;;;;;5071961;28;19913;-28
2023/05/12 05:01:25;;;;;;;;;;;13.30;92.50;;;;;;5071492;28;20003;-27
2023/05/12 05:03:51;;;;;;;;;;;13.40;92.70;;;;;;5071000;28;19908;-27
2023/05/12 05:06:16;;;;;;;;;;;13.40;92.60;;;;;;5072387;28;19916;-34
2023/05/12 05:08:42;;;;;;;;;;;13.40;92.50;;;;;;5071100;28;20234;-28
2023/05/12 05:11:07;;;;;;;;;;;13.40;92.50;;;;;;5072177;28;20338;-31
2023/05/12 05:13:33;;;;;;;;;;;13.40;92.50;;;;;;5071881;28;19915;-30
2023/05/12 05:15:58;;;;;;;;;;;13.50;92.50;;;;;;5072216;28;19909;-28
2023/05/12 05:18:24;;;;;;;;;;;13.50;92.50;;;;;;5072282;28;20240;-29
2023/05/12 05:20:49;;;;;;;;;;;13.50;92.50;;;;;;5072266;28;19912;-28
2023/05/12 05:23:15;;;;;;;;;;;13.50;92.40;;;;;;5070785;28;19962;-27
2023/05/12 05:25:40;;;;;;;;;;;13.60;92.40;;;;;;5071844;28;19908;-29
2023/05/12 05:28:06;;;;;;;;;;;13.60;92.40;;;;;;5071210;28;19916;-27
2023/05/12 05:30:31;;;;;;;;;;;13.70;92.40;;;;;;5069936;28;19919;-27
2023/05/12 05:32:57;;;;;;;;;;;13.70;92.40;;;;;;5071332;28;20022;-29
2023/05/12 05:35:24;;;;;;;;;;;13.80;92.40;;;;;;5070966;28;21572;-27
2023/05/12 05:37:52;;;;;;;;;;;13.80;92.40;;;;;;5072200;28;19909;-28
2023/05/12 05:40:18;;;;;;;;;;;13.80;92.30;;;;;;5075072;28;19908;-27
2023/05/12 05:42:43;;;;;;;;;;;13.90;92.30;;;;;;5074860;28;19920;-30
2023/05/12 05:45:09;;;;;;;;;;;13.90;92.20;;;;;;5074950;28;19908;-27
2023/05/12 05:47:36;;;;;;;;;;;14.00;92.20;;;;;;5074785;28;19913;-27
2023/05/12 05:50:02;;;;;;;;;;;14.10;92.20;;;;;;5074774;28;20419;-29
2023/05/12 05:52:28;;;;;;;;;;;14.10;92.10;;;;;;5074980;28;19962;-28
2023/05/12 05:54:53;;;;;;;;;;;14.20;92.10;;;;;;5073906;28;20314;-30
2023/05/12 05:57:18;;;;;;;;;;;14.20;92.00;;;;;;5073610;28;19909;-30
2023/05/12 05:59:44;;;;;;;;;;;14.30;92.00;;;;;;5073857;28;19924;-28
2023/05/12 06:02:09;;;;;;;;;;;14.30;91.90;;;;;;5074221;28;19923;-28
2023/05/12 06:04:35;;;;;;;;;;;14.30;91.90;;;;;;5074716;28;19915;-27
2023/05/12 06:07:00;;;;;;;;;;;14.40;91.80;;;;;;5074546;28;19919;-28
2023/05/12 06:09:26;;;;;;;;;;;14.40;91.80;;;;;;5074299;28;19915;-28
2023/05/12 06:11:51;;;;;;;;;;;14.40;91.80;;;;;;5074419;28;19908;-29
2023/05/12 06:14:17;;;;;;;;;;;14.50;91.80;;;;;;5074536;28;20356;-27
2023/05/12 06:16:42;;;;;;;;;;;14.50;91.70;;;;;;5074403;28;19915;-35
2023/05/12 06:19:08;;;;;;;;;;;14.50;91.70;;;;;;5073000;28;19919;-27
2023/05/12 06:21:33;;;;;;;;;;;14.60;91.60;;;;;;5074143;28;20418;-30
2023/05/12 06:23:59;;;;;;;;;;;14.60;91.60;;;;;;5074315;28;19915;-33
2023/05/12 06:26:24;;;;;;;;;;;14.60;91.50;;;;;;5074852;28;19912;-27
2023/05/12 06:28:50;;;;;;;;;;;14.70;91.50;;;;;;5074133;28;19921;-29
2023/05/12 06:31:15;;;;;;;;;;;14.70;91.40;;;;;;5074159;28;20007;-27
2023/05/12 06:33:41;;;;;;;;;;;14.80;91.40;;;;;;5074111;28;19919;-27
2023/05/12 06:36:07;;;;;;;;;;;14.80;91.30;;;;;;5074407;28;19912;-34
2023/05/12 06:38:33;;;;;;;;;;;14.90;91.30;;;;;;5073732;28;19916;-28
2023/05/12 06:40:58;;;;;;;;;;;14.90;91.30;;;;;;5072589;28;19913;-29
2023/05/12 06:43:24;;;;;;;;;;;14.90;91.20;;;;;;5073917;28;19919;-31
2023/05/12 06:45:50;;;;;;;;;;;15.00;91.20;;;;;;5073973;28;19936;-29
2023/05/12 06:48:15;;;;;;;;;;;15.00;91.10;;;;;;5073621;28;19919;-29
2023/05/12 06:50:41;;;;;;;;;;;15.10;91.10;;;;;;5072561;28;20382;-28
2023/05/12 06:53:06;;;;;;;;;;;15.10;91.10;;;;;;5073849;28;19916;-27
2023/05/12 06:55:33;;;;;;;;;;;15.20;91.00;;;;;;5073825;28;19974;-27
2023/05/12 06:57:58;;;;;;;;;;;15.20;91.00;;;;;;5073695;28;19923;-27
2023/05/12 07:00:24;;;;;;;;;;;15.30;90.90;;;;;;5073534;28;19913;-43
2023/05/12 07:02:50;;;;;;;;;;;15.40;90.80;;;;;;5073629;28;19919;-29
2023/05/12 07:05:15;;;;;;;;;;;15.40;90.70;;;;;;5073609;28;20006;-28
2023/05/12 07:07:41;;;;;;;;;;;15.50;90.70;;;;;;5073495;28;19926;-29
2023/05/12 07:10:07;;;;;;;;;;;15.60;90.60;;;;;;5073190;28;20367;-33
2023/05/12 07:12:33;;;;;;;;;;;15.70;90.60;;;;;;5073519;28;19936;-35
2023/05/12 07:14:58;;;;;;;;;;;15.80;90.50;;;;;;5073672;28;19913;-27
2023/05/12 07:17:24;;;;;;;;;;;15.90;90.40;;;;;;5073546;28;19999;-28
2023/05/12 07:19:49;;;;;;;;;;;15.90;90.30;;;;;;5073053;28;20409;-28
2023/05/12 07:22:15;;;;;;;;;;;16.00;90.30;;;;;;5073956;28;19916;-27
2023/05/12 07:24:40;;;;;;;;;;;16.10;90.10;;;;;;5073393;28;19912;-29
2023/05/12 07:27:07;;;;;;;;;;;16.10;90.00;;;;;;5072297;28;19960;-27
2023/05/12 07:29:32;;;;;;;;;;;16.10;90.00;;;;;;5073261;28;19938;-30
2023/05/12 07:31:58;;;;;;;;;;;16.10;90.00;;;;;;5073267;28;19919;-26
2023/05/12 07:34:23;;;;;;;;;;;16.10;90.00;;;;;;5073167;28;19962;-27
2023/05/12 07:36:49;;;;;;;;;;;16.10;90.00;;;;;;5073134;28;19919;-28
2023/05/12 07:39:18;;;;;;;;;;;16.10;89.90;;;;;;5072879;28;19921;-28
2023/05/12 07:41:43;;;;;;;;;;;16.10;89.80;;;;;;5072934;28;20372;-28
2023/05/12 07:44:09;;;;;;;;;;;16.20;89.70;;;;;;5072482;28;19916;-27
2023/05/12 07:46:35;;;;;;;;;;;16.20;89.80;;;;;;5072760;28;19920;-26
2023/05/12 07:49:01;;;;;;;;;;;16.20;89.70;;;;;;5072710;28;19913;-29
2023/05/12 07:51:26;;;;;;;;;;;16.20;89.70;;;;;;5072814;28;19920;-27
2023/05/12 07:53:54;;;;;;;;;;;16.20;89.70;;;;;;5072624;28;20011;-28
2023/05/12 07:56:20;;;;;;;;;;;16.30;89.40;;;;;;5072994;28;20384;-29
2023/05/12 07:58:46;;;;;;;;;;;16.40;89.40;;;;;;5072700;28;19940;-27
2023/05/12 08:01:11;;;;;;;;;;;16.40;89.30;;;;;;5072405;28;19913;-29
2023/05/12 08:03:37;;;;;;;;;;;16.50;88.90;;;;;;5073174;28;19912;-28
2023/05/12 08:06:04;;;;;;;;;;;16.50;88.70;;;;;;5072500;28;20322;-27
2023/05/12 08:08:30;;;;;;;;;;;16.60;88.60;;;;;;5072565;28;20275;-27
2023/05/12 08:10:56;;;;;;;;;;;16.70;88.20;;;;;;5072451;28;20002;-26
2023/05/12 08:13:21;;;;;;;;;;;16.70;88.00;;;;;;5072593;28;19913;-27
2023/05/12 08:15:48;;;;;;;;;;;16.80;88.00;;;;;;5072411;28;19917;-27
2023/05/12 08:18:13;;;;;;;;;;;16.90;88.00;;;;;;5072372;28;20398;-33
2023/05/12 08:20:38;;;;;;;;;;;17.00;87.90;;;;;;5072432;28;19920;-27
2023/05/12 08:23:04;;;;;;;;;;;17.10;87.60;;;;;;5070900;28;19956;-28
2023/05/12 08:25:30;;;;;;;;;;;17.10;87.20;;;;;;5072357;28;19912;-28
2023/05/12 08:27:57;;;;;;;;;;;17.10;86.40;;;;;;5072207;28;19920;-31
2023/05/12 08:30:23;;;;;;;;;;;17.10;86.60;;;;;;5072308;28;19920;-32
2023/05/12 08:32:48;;;;;;;;;;;17.10;86.50;;;;;;5072276;28;19912;-35
2023/05/12 08:35:13;;;;;;;;;;;17.10;86.80;;;;;;5072295;28;20029;-29
2023/05/12 08:37:39;;;;;;;;;;;17.10;85.90;;;;;;5072088;28;19953;-32
2023/05/12 08:40:09;;;;;;;;;;;17.10;86.30;;;;;;5072161;28;19916;-28
2023/05/12 08:42:38;;;;;;;;;;;17.20;86.10;;;;;;5072157;28;19917;-28
2023/05/12 08:45:04;;;;;;;;;;;17.20;86.00;;;;;;5072244;28;19955;-27
2023/05/12 08:47:31;;;;;;;;;;;17.30;85.10;;;;;;5072271;28;20392;-27
2023/05/12 08:50:01;;;;;;;;;;;17.40;85.30;;;;;;5071044;28;20269;-27
2023/05/12 08:52:28;;;;;;;;;;;17.50;84.90;;;;;;5072096;28;19919;-29
2023/05/12 08:54:54;;;;;;;;;;;17.60;84.30;;;;;;5072024;28;20003;-27
2023/05/12 08:57:20;;;;;;;;;;;17.70;84.30;;;;;;5072137;28;20352;-28
2023/05/12 08:59:46;;;;;;;;;;;17.80;83.70;;;;;;5072091;28;19916;-36
2023/05/12 09:02:12;;;;;;;;;;;17.80;82.80;;;;;;5072101;28;20320;-28
2023/05/12 09:04:38;;;;;;;;;;;17.80;82.90;;;;;;5072215;28;20280;-28
2023/05/12 09:07:05;;;;;;;;;;;17.90;83.20;;;;;;5071908;28;19913;-28
2023/05/12 09:09:33;;;;;;;;;;;17.90;83.20;;;;;;5071966;28;19912;-34
2023/05/12 09:12:00;;;;;;;;;;;18.00;83.10;;;;;;5071894;28;19912;-27
2023/05/12 09:14:28;;;;;;;;;;;18.10;82.80;;;;;;5075838;28;19919;-27
2023/05/12 09:16:58;;;;;;;;;;;18.10;82.90;;;;;;5075996;28;19912;-30
2023/05/12 09:19:24;;;;;;;;;;;18.20;82.50;;;;;;5075774;28;19917;-33
2023/05/12 09:21:50;;;;;;;;;;;18.30;82.50;;;;;;5074694;28;19912;-31
2023/05/12 09:24:15;;;;;;;;;;;18.40;82.60;;;;;;5075930;28;19946;-28
2023/05/12 09:26:48;;;;;;;;;;;18.50;81.90;;;;;;5075917;28;19999;-29
2023/05/12 09:29:14;;;;;;;;;;;18.50;81.60;;;;;;5075614;28;20277;-27
2023/05/12 09:31:47;;;;;;;;;;;18.50;81.40;;;;;;5075771;28;19981;-29
2023/05/12 09:34:13;;;;;;;;;;;18.60;81.20;;;;;;5075571;28;20269;-27
2023/05/12 09:36:38;;;;;;;;;;;18.60;80.80;;;;;;5075720;28;19919;-28
2023/05/12 09:39:05;;;;;;;;;;;18.60;80.70;;;;;;5075625;28;19921;-30
2023/05/12 09:41:35;;;;;;;;;;;18.70;80.30;;;;;;5075655;28;19912;-30
2023/05/12 09:44:00;;;;;;;;;;;18.70;80.00;;;;;;5075616;28;19912;-32
2023/05/12 09:46:26;;;;;;;;;;;18.70;79.90;;;;;;5075540;28;20011;-32
2023/05/12 09:48:54;;;;;;;;;;;18.80;80.10;;;;;;5075561;28;20040;-29
2023/05/12 09:51:23;;;;;;;;;;;18.90;80.10;;;;;;5074000;28;19951;-30
2023/05/12 09:53:48;;;;;;;;;;;19.00;79.90;;;;;;5074020;28;19912;-27
2023/05/12 09:56:15;;;;;;;;;;;19.00;79.80;;;;;;5075182;28;19923;-28
2023/05/12 09:58:42;;;;;;;;;;;19.00;79.60;;;;;;5075208;28;19916;-29
2023/05/12 10:01:09;;;;;;;;;;;19.00;79.30;;;;;;5075176;28;19991;-28
2023/05/12 10:03:36;;;;;;;;;;;19.00;78.90;;;;;;5075244;28;19918;-34
2023/05/12 10:06:02;;;;;;;;;;;19.00;78.90;;;;;;5075278;28;20391;-37
2023/05/12 10:08:48;;;;;;;;;;;19.10;79.20;;;;;;5075115;28;20261;-27
2023/05/12 10:11:14;;;;;;;;;;;19.10;79.20;;;;;;5074832;28;19920;-32
2023/05/12 10:13:39;;;;;;;;;;;19.20;79.10;;;;;;5075017;28;19912;-26
2023/05/12 10:16:05;;;;;;;;;;;19.20;78.80;;;;;;5074708;28;20322;-29
2023/05/12 10:18:32;;;;;;;;;;;19.30;78.40;;;;;;5073571;28;19917;-29
2023/05/12 10:20:58;;;;;;;;;;;19.30;78.40;;;;;;5073424;28;19919;-28
2023/05/12 10:23:24;;;;;;;;;;;19.30;77.80;;;;;;5074834;28;19913;-30
2023/05/12 10:25:49;;;;;;;;;;;19.30;77.20;;;;;;5075058;28;19919;-26
2023/05/12 10:28:15;;;;;;;;;;;19.40;77.70;;;;;;5074466;28;19970;-35
2023/05/12 10:30:41;;;;;;;;;;;19.50;78.00;;;;;;5074711;28;19916;-29
2023/05/12 10:33:08;;;;;;;;;;;19.60;77.90;;;;;;5074637;28;20287;-26
2023/05/12 10:35:35;;;;;;;;;;;19.60;77.80;;;;;;5074483;28;19974;-35
2023/05/12 10:38:04;;;;;;;;;;;19.70;76.40;;;;;;5074488;28;19991;-28
2023/05/12 10:40:30;;;;;;;;;;;19.70;76.70;;;;;;5074750;28;19956;-27
2023/05/12 10:42:57;;;;;;;;;;;19.70;76.60;;;;;;5073178;28;20256;-28
2023/05/12 10:45:22;;;;;;;;;;;19.80;76.50;;;;;;5074440;28;19986;-29
2023/05/12 10:47:48;;;;;;;;;;;19.80;76.10;;;;;;5074260;28;19916;-34
2023/05/12 10:50:13;;;;;;;;;;;19.80;75.80;;;;;;5074304;28;20350;-29
2023/05/12 10:52:55;;;;;;;;;;;19.90;75.30;;;;;;5074299;28;20387;-30
2023/05/12 10:55:31;;;;;;;;;;;20.00;75.40;;;;;;5074151;28;19935;-31
2023/05/12 10:58:03;;;;;;;;;;;20.10;75.10;;;;;;5074038;28;19912;-33
2023/05/12 11:00:28;;;;;;;;;;;20.20;75.20;;;;;;5074012;28;19917;-31
2023/05/12 11:02:54;;;;;;;;;;;20.40;75.00;;;;;;5073825;28;19916;-32
2023/05/12 11:05:19;;;;;;;;;;;20.60;74.80;;;;;;5073847;28;19919;-25
2023/05/12 11:07:48;;;;;;;;;;;20.80;74.50;;;;;;5073892;28;19913;-33
2023/05/12 11:10:14;;;;;;;;;;;20.90;73.90;;;;;;5072454;28;19913;-33
2023/05/12 11:12:41;;;;;;;;;;;21.00;73.80;;;;;;5073851;28;19935;-33
2023/05/12 11:15:06;;;;;;;;;;;21.10;73.40;;;;;;5073591;28;20217;-33
2023/05/12 11:17:32;;;;;;;;;;;21.20;73.40;;;;;;5073805;28;19918;-35
2023/05/12 11:19:59;;;;;;;;;;;21.20;73.20;;;;;;5073871;28;20310;-34
2023/05/12 11:22:25;;;;;;;;;;;21.30;71.60;;;;;;5072155;28;19913;-31
2023/05/12 11:24:51;;;;;;;;;;;21.30;70.50;;;;;;5073812;28;19912;-28
2023/05/12 11:27:18;;;;;;;;;;;21.30;69.80;;;;;;5073455;28;19998;-31
2023/05/12 11:29:45;;;;;;;;;;;21.30;69.60;;;;;;5073351;28;19920;-33
2023/05/12 11:32:11;;;;;;;;;;;21.40;70.30;;;;;;5073592;28;19913;-34
2023/05/12 11:34:37;;;;;;;;;;;21.40;69.90;;;;;;5073223;28;19979;-34
2023/05/12 11:37:03;;;;;;;;;;;21.50;69.80;;;;;;5072828;28;20011;-32
2023/05/12 11:39:31;;;;;;;;;;;21.60;69.00;;;;;;5073144;28;19921;-29
2023/05/12 11:42:04;;;;;;;;;;;21.60;69.20;;;;;;5073246;28;19919;-34
2023/05/12 11:44:30;;;;;;;;;;;21.60;69.20;;;;;;5073325;28;19912;-36
2023/05/12 11:46:59;;;;;;;;;;;21.70;68.50;;;;;;5071743;28;19912;-33
2023/05/12 11:49:26;;;;;;;;;;;21.70;68.90;;;;;;5073221;28;19919;-34
2023/05/12 11:51:56;;;;;;;;;;;21.80;69.10;;;;;;5071787;28;19919;-33
2023/05/12 11:54:21;;;;;;;;;;;21.90;68.90;;;;;;5073087;28;19965;-27
2023/05/12 11:56:52;;;;;;;;;;;22.10;68.70;;;;;;5072998;28;20368;-32
2023/05/12 11:59:25;;;;;;;;;;;22.20;68.50;;;;;;5072920;28;19920;-31
2023/05/12 12:01:51;;;;;;;;;;;22.30;66.70;;;;;;5071625;28;20007;-29
2023/05/12 12:04:16;;;;;;;;;;;22.40;65.20;;;;;;5072835;28;19994;-30
2023/05/12 12:06:43;;;;;;;;;;;22.50;66.00;;;;;;5072896;28;20282;-30
2023/05/12 12:09:09;;;;;;;;;;;22.60;66.30;;;;;;5072576;28;19913;-37
2023/05/12 12:11:34;;;;;;;;;;;22.70;66.40;;;;;;5072662;28;19928;-30
2023/05/12 12:14:00;;;;;;;;;;;22.70;65.60;;;;;;5071266;28;20275;-27
2023/05/12 12:16:26;;;;;;;;;;;22.70;64.20;;;;;;5072637;28;19912;-28
2023/05/12 12:18:52;;;;;;;;;;;22.70;64.40;;;;;;5072364;28;19971;-27
2023/05/12 12:21:18;;;;;;;;;;;22.80;64.20;;;;;;5072462;28;19912;-30
2023/05/12 12:23:44;;;;;;;;;;;22.80;64.80;;;;;;5072409;28;19919;-30
2023/05/12 12:26:09;;;;;;;;;;;22.90;64.50;;;;;;5071056;28;19912;-29
2023/05/12 12:28:35;;;;;;;;;;;22.90;62.00;;;;;;5072160;28;19924;-29
2023/05/12 12:31:01;;;;;;;;;;;22.80;63.50;;;;;;5072752;28;19912;-33
2023/05/12 12:33:26;;;;;;;;;;;22.80;63.80;;;;;;5072361;28;20372;-32
2023/05/12 12:35:52;;;;;;;;;;;22.80;64.20;;;;;;5072588;28;19913;-30
2023/05/12 12:38:20;;;;;;;;;;;22.90;64.50;;;;;;5072444;28;19916;-30
2023/05/12 12:40:45;;;;;;;;;;;23.00;64.70;;;;;;5072156;28;20002;-26
2023/05/12 12:43:11;;;;;;;;;;;23.00;64.30;;;;;;5072279;28;20260;-28
2023/05/12 12:45:36;;;;;;;;;;;23.00;64.00;;;;;;5072147;28;19935;-33
2023/05/12 12:48:02;;;;;;;;;;;23.00;63.90;;;;;;5072162;28;20053;-32
2023/05/12 12:50:27;;;;;;;;;;;23.10;64.00;;;;;;5071883;28;20376;-32
2023/05/12 12:52:53;;;;;;;;;;;23.10;63.70;;;;;;5071833;28;19919;-32
2023/05/12 12:55:19;;;;;;;;;;;23.10;63.50;;;;;;5071827;28;19919;-29
2023/05/12 12:57:44;;;;;;;;;;;23.20;63.50;;;;;;5071828;28;19960;-35
2023/05/12 13:00:10;;;;;;;;;;;23.20;63.40;;;;;;5071799;28;20376;-29
2023/05/12 13:02:36;;;;;;;;;;;23.30;62.90;;;;;;5071775;28;19913;-32
2023/05/12 13:05:03;;;;;;;;;;;23.30;63.30;;;;;;5071847;28;19913;-28
2023/05/12 13:07:28;;;;;;;;;;;23.40;63.40;;;;;;5070454;28;19966;-30
2023/05/12 13:09:54;;;;;;;;;;;23.40;63.70;;;;;;5071733;28;19912;-34
2023/05/12 13:12:19;;;;;;;;;;;23.40;63.30;;;;;;5071796;28;19960;-29
2023/05/12 13:14:45;;;;;;;;;;;23.50;63.00;;;;;;5071850;28;19912;-29
2023/05/12 13:17:10;;;;;;;;;;;23.60;63.40;;;;;;5071745;28;19912;-31
2023/05/12 13:19:36;;;;;;;;;;;23.60;61.90;;;;;;5070316;28;19927;-27
2023/05/12 13:22:02;;;;;;;;;;;23.50;61.20;;;;;;5071706;28;19959;-30
2023/05/12 13:24:28;;;;;;;;;;;23.50;61.30;;;;;;5071581;28;19919;-35
2023/05/12 13:26:53;;;;;;;;;;;23.40;60.30;;;;;;5071667;28;20372;-33
2023/05/12 13:29:19;;;;;;;;;;;23.40;61.60;;;;;;5071411;28;19924;-28
2023/05/12 13:31:45;;;;;;;;;;;23.50;61.50;;;;;;5071504;28;20375;-31
2023/05/12 13:34:11;;;;;;;;;;;23.50;61.20;;;;;;5071466;28;19970;-30
2023/05/12 13:36:37;;;;;;;;;;;23.60;60.50;;;;;;5071336;28;20261;-34
2023/05/12 13:39:02;;;;;;;;;;;23.60;61.20;;;;;;5071488;28;19920;-32
2023/05/12 13:41:28;;;;;;;;;;;23.70;61.50;;;;;;5071599;28;19916;-30
2023/05/12 13:43:53;;;;;;;;;;;23.70;61.20;;;;;;5071544;28;20326;-32
2023/05/12 13:46:19;;;;;;;;;;;23.70;61.50;;;;;;5071476;28;19963;-32
2023/05/12 13:48:45;;;;;;;;;;;23.70;59.60;;;;;;5071447;28;19923;-34
2023/05/12 13:51:11;;;;;;;;;;;23.70;59.90;;;;;;5071363;28;20380;-28
2023/05/12 13:53:38;;;;;;;;;;;23.60;59.60;;;;;;5071407;28;19920;-37
2023/05/12 13:56:04;;;;;;;;;;;23.70;60.40;;;;;;5071289;28;19957;-29
2023/05/12 13:58:29;;;;;;;;;;;23.80;60.70;;;;;;5072440;28;20045;-39
2023/05/12 14:00:55;;;;;;;;;;;23.90;59.30;;;;;;5075013;28;19923;-34
2023/05/12 14:03:20;;;;;;;;;;;23.80;58.40;;;;;;5074775;28;20340;-27
2023/05/12 14:05:46;;;;;;;;;;;23.70;58.50;;;;;;5074737;28;19989;-34
2023/05/12 14:08:11;;;;;;;;;;;23.70;58.50;;;;;;5074864;28;19912;-29